sensor_id;sensor_type;location;lat;lon;timestamp;temperature;humidity
39957;DHT22;48483;44.640;7.494;2023-03-23T00:01:06;13.40;99.90
39957;DHT22;48483;44.640;7.494;2023-03-23T00:03:34;13.40;99.90
39957;DHT22;48483;44.640;7.494;2023-03-23T00:06:01;13.40;99.90
39957;DHT22;48483;44.640;7.494;2023-03-23T00:08:33;13.30;99.90
39957;DHT22;48483;44.640;7.494;2023-03-23T00:11:00;13.30;99.90
39957;DHT22;48483;44.640;7.494;2023-03-23T00:13:28;13.30;99.90
39957;DHT22;48483;44.640;7.494;2023-03-23T00:15:56;13.20;99.90
39957;DHT22;48483;44.640;7.494;2023-03-23T00:18:24;13.20;99.90
39957;DHT22;48483;44.640;7.494;2023-03-23T00:20:53;13.20;99.90
39957;DHT22;48483;44.640;7.494;2023-03-23T00:23:22;13.20;99.90
39957;DHT22;48483;44.640;7.494;2023-03-23T00:25:51;13.20;99.90
39957;DHT22;48483;44.640;7.494;2023-03-23T00:28:25;13.20;99.90
39957;DHT22;48483;44.640;7.494;2023-03-23T00:30:57;13.20;99.90
39957;DHT22;48483;44.640;7.494;2023-03-23T00:33:25;13.10;99.90
39957;DHT22;48483;44.640;7.494;2023-03-23T00:35:54;13.00;99.90
39957;DHT22;48483;44.640;7.494;2023-03-23T00:38:23;13.00;99.90
39957;DHT22;48483;44.640;7.494;2023-03-23T00:40:51;13.00;99.90
39957;DHT22;48483;44.640;7.494;2023-03-23T00:43:18;13.00;99.90
39957;DHT22;48483;44.640;7.494;2023-03-23T00:45:46;13.00;99.90
39957;DHT22;48483;44.640;7.494;2023-03-23T00:48:19;13.00;99.90
39957;DHT22;48483;44.640;7.494;2023-03-23T00:50:46;13.00;99.90
39957;DHT22;48483;44.640;7.494;2023-03-23T00:53:15;13.00;99.90
39957;DHT22;48483;44.640;7.494;2023-03-23T00:55:43;12.90;99.90
39957;DHT22;48483;44.640;7.494;2023-03-23T00:58:10;13.00;99.90
39957;DHT22;48483;44.640;7.494;2023-03-23T01:00:38;13.00;99.90
39957;DHT22;48483;44.640;7.494;2023-03-23T01:03:06;12.90;99.90
39957;DHT22;48483;44.640;7.494;2023-03-23T01:05:34;12.90;99.90
39957;DHT22;48483;44.640;7.494;2023-03-23T01:08:03;12.90;99.90
39957;DHT22;48483;44.640;7.494;2023-03-23T01:10:32;12.90;99.90
39957;DHT22;48483;44.640;7.494;2023-03-23T01:13:00;12.90;99.90
39957;DHT22;48483;44.640;7.494;2023-03-23T01:15:28;12.90;99.90
39957;DHT22;48483;44.640;7.494;2023-03-23T01:17:55;12.90;99.90
39957;DHT22;48483;44.640;7.494;2023-03-23T01:20:23;12.80;99.90
39957;DHT22;48483;44.640;7.494;2023-03-23T01:22:50;12.80;99.90
39957;DHT22;48483;44.640;7.494;2023-03-23T01:25:17;12.80;99.90
39957;DHT22;48483;44.640;7.494;2023-03-23T01:27:45;12.80;99.90
39957;DHT22;48483;44.640;7.494;2023-03-23T01:30:13;12.80;99.90
39957;DHT22;48483;44.640;7.494;2023-03-23T01:32:40;12.70;99.90
39957;DHT22;48483;44.640;7.494;2023-03-23T01:35:07;12.70;99.90
39957;DHT22;48483;44.640;7.494;2023-03-23T01:37:36;12.70;99.90
39957;DHT22;48483;44.640;7.494;2023-03-23T01:40:05;12.70;99.90
39957;DHT22;48483;44.640;7.494;2023-03-23T01:42:35;12.70;99.90
39957;DHT22;48483;44.640;7.494;2023-03-23T01:45:33;12.70;99.90
39957;DHT22;48483;44.640;7.494;2023-03-23T01:48:12;12.70;99.90
39957;DHT22;48483;44.640;7.494;2023-03-23T01:50:47;12.70;99.90
39957;DHT22;48483;44.640;7.494;2023-03-23T01:53:15;12.70;99.90
39957;DHT22;48483;44.640;7.494;2023-03-23T01:55:43;12.70;99.90
39957;DHT22;48483;44.640;7.494;2023-03-23T01:58:16;12.70;99.90
39957;DHT22;48483;44.640;7.494;2023-03-23T02:00:45;12.60;99.90
39957;DHT22;48483;44.640;7.494;2023-03-23T02:03:12;12.60;99.90
39957;DHT22;48483;44.640;7.494;2023-03-23T02:05:41;12.60;99.90
39957;DHT22;48483;44.640;7.494;2023-03-23T02:08:19;12.60;99.90
39957;DHT22;48483;44.640;7.494;2023-03-23T02:10:47;12.60;99.90
39957;DHT22;48483;44.640;7.494;2023-03-23T02:13:14;12.70;99.90
39957;DHT22;48483;44.640;7.494;2023-03-23T02:15:56;12.70;99.90
39957;DHT22;48483;44.640;7.494;2023-03-23T02:18:42;12.60;99.90
39957;DHT22;48483;44.640;7.494;2023-03-23T02:22:06;12.60;99.90
39957;DHT22;48483;44.640;7.494;2023-03-23T02:24:59;12.60;99.90
39957;DHT22;48483;44.640;7.494;2023-03-23T02:31:03;12.70;99.90
39957;DHT22;48483;44.640;7.494;2023-03-23T02:33:47;12.60;99.90
39957;DHT22;48483;44.640;7.494;2023-03-23T02:36:21;12.70;99.90
39957;DHT22;48483;44.640;7.494;2023-03-23T02:38:57;12.70;99.90
39957;DHT22;48483;44.640;7.494;2023-03-23T02:41:30;12.70;99.90
39957;DHT22;48483;44.640;7.494;2023-03-23T02:43:58;12.60;99.90
39957;DHT22;48483;44.640;7.494;2023-03-23T02:46:28;12.60;99.90
39957;DHT22;48483;44.640;7.494;2023-03-23T02:48:57;12.60;99.90
39957;DHT22;48483;44.640;7.494;2023-03-23T02:51:25;12.60;99.90
39957;DHT22;48483;44.640;7.494;2023-03-23T02:53:55;12.60;99.90
39957;DHT22;48483;44.640;7.494;2023-03-23T02:56:24;12.60;99.90
39957;DHT22;48483;44.640;7.494;2023-03-23T02:58:52;12.60;99.90
39957;DHT22;48483;44.640;7.494;2023-03-23T03:01:46;12.60;99.90
39957;DHT22;48483;44.640;7.494;2023-03-23T03:04:18;12.60;99.90
39957;DHT22;48483;44.640;7.494;2023-03-23T03:06:54;12.60;99.90
39957;DHT22;48483;44.640;7.494;2023-03-23T03:09:28;12.70;99.90
39957;DHT22;48483;44.640;7.494;2023-03-23T03:12:02;12.60;99.90
39957;DHT22;48483;44.640;7.494;2023-03-23T03:14:34;12.60;99.90
39957;DHT22;48483;44.640;7.494;2023-03-23T03:17:08;12.70;99.90
39957;DHT22;48483;44.640;7.494;2023-03-23T03:19:40;12.70;99.90
39957;DHT22;48483;44.640;7.494;2023-03-23T03:22:09;12.70;99.90
39957;DHT22;48483;44.640;7.494;2023-03-23T03:24:41;12.70;99.90
39957;DHT22;48483;44.640;7.494;2023-03-23T03:27:13;12.70;99.90
39957;DHT22;48483;44.640;7.494;2023-03-23T03:30:05;12.70;99.90
39957;DHT22;48483;44.640;7.494;2023-03-23T03:32:38;12.80;99.90
39957;DHT22;48483;44.640;7.494;2023-03-23T03:35:08;12.80;99.90
39957;DHT22;48483;44.640;7.494;2023-03-23T03:37:35;12.80;99.90
39957;DHT22;48483;44.640;7.494;2023-03-23T03:40:11;12.80;99.90
39957;DHT22;48483;44.640;7.494;2023-03-23T03:42:41;12.80;99.90
39957;DHT22;48483;44.640;7.494;2023-03-23T03:45:13;12.90;99.90
39957;DHT22;48483;44.640;7.494;2023-03-23T03:47:40;12.90;99.90
39957;DHT22;48483;44.640;7.494;2023-03-23T03:50:11;12.90;99.90
39957;DHT22;48483;44.640;7.494;2023-03-23T03:52:39;12.90;99.90
39957;DHT22;48483;44.640;7.494;2023-03-23T03:55:08;12.90;99.90
39957;DHT22;48483;44.640;7.494;2023-03-23T03:57:36;13.00;99.90
39957;DHT22;48483;44.640;7.494;2023-03-23T04:00:07;13.10;99.90
39957;DHT22;48483;44.640;7.494;2023-03-23T04:02:42;13.00;99.90
39957;DHT22;48483;44.640;7.494;2023-03-23T04:05:11;13.00;99.90
39957;DHT22;48483;44.640;7.494;2023-03-23T04:07:39;13.00;99.90
39957;DHT22;48483;44.640;7.494;2023-03-23T04:10:10;13.10;99.90
39957;DHT22;48483;44.640;7.494;2023-03-23T04:12:39;13.10;99.90
39957;DHT22;48483;44.640;7.494;2023-03-23T04:15:35;13.10;99.90
39957;DHT22;48483;44.640;7.494;2023-03-23T04:18:02;13.10;99.90
39957;DHT22;48483;44.640;7.494;2023-03-23T04:20:32;13.10;99.90
39957;DHT22;48483;44.640;7.494;2023-03-23T04:23:01;13.10;99.90
39957;DHT22;48483;44.640;7.494;2023-03-23T04:25:29;13.10;99.90
39957;DHT22;48483;44.640;7.494;2023-03-23T04:27:59;13.20;99.90
39957;DHT22;48483;44.640;7.494;2023-03-23T04:30:32;13.20;99.90
39957;DHT22;48483;44.640;7.494;2023-03-23T04:33:06;13.20;99.90
39957;DHT22;48483;44.640;7.494;2023-03-23T04:35:34;13.30;99.90
39957;DHT22;48483;44.640;7.494;2023-03-23T04:38:18;13.30;99.90
39957;DHT22;48483;44.640;7.494;2023-03-23T04:40:52;13.30;99.90
39957;DHT22;48483;44.640;7.494;2023-03-23T04:43:44;13.30;99.90
39957;DHT22;48483;44.640;7.494;2023-03-23T04:46:21;13.30;99.90
39957;DHT22;48483;44.640;7.494;2023-03-23T04:48:50;13.20;99.90
39957;DHT22;48483;44.640;7.494;2023-03-23T04:51:22;13.20;99.90
39957;DHT22;48483;44.640;7.494;2023-03-23T04:53:51;13.10;99.90
39957;DHT22;48483;44.640;7.494;2023-03-23T04:56:18;13.10;99.90
39957;DHT22;48483;44.640;7.494;2023-03-23T04:58:46;13.10;99.90
39957;DHT22;48483;44.640;7.494;2023-03-23T05:01:28;13.00;99.90
39957;DHT22;48483;44.640;7.494;2023-03-23T05:04:16;13.00;99.90
39957;DHT22;48483;44.640;7.494;2023-03-23T05:06:47;13.00;99.90
39957;DHT22;48483;44.640;7.494;2023-03-23T05:09:21;13.00;99.90
39957;DHT22;48483;44.640;7.494;2023-03-23T05:11:49;13.00;99.90
39957;DHT22;48483;44.640;7.494;2023-03-23T05:14:16;13.00;99.90
39957;DHT22;48483;44.640;7.494;2023-03-23T05:16:46;13.00;99.90
39957;DHT22;48483;44.640;7.494;2023-03-23T05:19:15;13.00;99.90
39957;DHT22;48483;44.640;7.494;2023-03-23T05:21:42;13.00;99.90
39957;DHT22;48483;44.640;7.494;2023-03-23T05:24:12;13.10;99.90
39957;DHT22;48483;44.640;7.494;2023-03-23T05:26:40;13.10;99.90
39957;DHT22;48483;44.640;7.494;2023-03-23T05:29:16;13.00;99.90
39957;DHT22;48483;44.640;7.494;2023-03-23T05:31:53;13.10;99.90
39957;DHT22;48483;44.640;7.494;2023-03-23T05:34:22;13.10;99.90
39957;DHT22;48483;44.640;7.494;2023-03-23T05:36:55;13.10;99.90
39957;DHT22;48483;44.640;7.494;2023-03-23T05:39:45;13.10;99.90
39957;DHT22;48483;44.640;7.494;2023-03-23T05:42:44;13.10;99.90
39957;DHT22;48483;44.640;7.494;2023-03-23T05:45:24;13.00;99.90
39957;DHT22;48483;44.640;7.494;2023-03-23T05:47:52;13.00;99.90
39957;DHT22;48483;44.640;7.494;2023-03-23T05:50:21;13.00;99.90
39957;DHT22;48483;44.640;7.494;2023-03-23T05:52:48;13.00;99.90
39957;DHT22;48483;44.640;7.494;2023-03-23T05:55:18;13.00;99.90
39957;DHT22;48483;44.640;7.494;2023-03-23T05:57:51;13.00;99.90
39957;DHT22;48483;44.640;7.494;2023-03-23T06:00:25;13.00;99.90
39957;DHT22;48483;44.640;7.494;2023-03-23T06:03:03;13.00;99.90
39957;DHT22;48483;44.640;7.494;2023-03-23T06:05:42;13.00;99.90
39957;DHT22;48483;44.640;7.494;2023-03-23T06:08:10;13.00;99.90
39957;DHT22;48483;44.640;7.494;2023-03-23T06:10:39;13.00;99.90
39957;DHT22;48483;44.640;7.494;2023-03-23T06:13:06;12.90;99.90
39957;DHT22;48483;44.640;7.494;2023-03-23T06:15:55;12.90;99.90
39957;DHT22;48483;44.640;7.494;2023-03-23T06:18:50;12.90;99.90
39957;DHT22;48483;44.640;7.494;2023-03-23T06:21:26;12.90;99.90
39957;DHT22;48483;44.640;7.494;2023-03-23T06:23:56;12.90;99.90
39957;DHT22;48483;44.640;7.494;2023-03-23T06:26:32;12.90;99.90
39957;DHT22;48483;44.640;7.494;2023-03-23T06:29:01;12.90;99.90
39957;DHT22;48483;44.640;7.494;2023-03-23T06:31:33;12.80;99.90
39957;DHT22;48483;44.640;7.494;2023-03-23T06:34:02;12.80;99.90
39957;DHT22;48483;44.640;7.494;2023-03-23T06:36:58;12.80;99.90
39957;DHT22;48483;44.640;7.494;2023-03-23T06:39:35;12.80;99.90
39957;DHT22;48483;44.640;7.494;2023-03-23T06:42:40;12.80;99.90
39957;DHT22;48483;44.640;7.494;2023-03-23T06:45:30;12.80;99.90
39957;DHT22;48483;44.640;7.494;2023-03-23T06:48:35;12.80;99.90
39957;DHT22;48483;44.640;7.494;2023-03-23T06:51:05;12.90;99.90
39957;DHT22;48483;44.640;7.494;2023-03-23T06:53:33;12.90;99.90
39957;DHT22;48483;44.640;7.494;2023-03-23T06:56:01;12.90;99.90
39957;DHT22;48483;44.640;7.494;2023-03-23T06:58:31;12.90;99.90
39957;DHT22;48483;44.640;7.494;2023-03-23T07:00:57;12.90;99.90
39957;DHT22;48483;44.640;7.494;2023-03-23T07:03:31;12.90;99.90
39957;DHT22;48483;44.640;7.494;2023-03-23T07:05:59;12.90;99.90
39957;DHT22;48483;44.640;7.494;2023-03-23T07:08:30;12.90;99.90
39957;DHT22;48483;44.640;7.494;2023-03-23T07:10:57;13.00;99.90
39957;DHT22;48483;44.640;7.494;2023-03-23T07:13:27;13.10;99.90
39957;DHT22;48483;44.640;7.494;2023-03-23T07:16:00;13.00;99.90
39957;DHT22;48483;44.640;7.494;2023-03-23T07:18:27;13.00;99.90
39957;DHT22;48483;44.640;7.494;2023-03-23T07:20:57;13.00;99.90
39957;DHT22;48483;44.640;7.494;2023-03-23T07:23:29;13.10;99.90
39957;DHT22;48483;44.640;7.494;2023-03-23T07:26:08;13.20;99.90
39957;DHT22;48483;44.640;7.494;2023-03-23T07:28:42;13.20;99.90
39957;DHT22;48483;44.640;7.494;2023-03-23T07:31:29;13.20;99.90
39957;DHT22;48483;44.640;7.494;2023-03-23T07:33:57;13.30;99.90
39957;DHT22;48483;44.640;7.494;2023-03-23T07:36:30;13.40;99.90
39957;DHT22;48483;44.640;7.494;2023-03-23T07:38:58;13.40;99.90
39957;DHT22;48483;44.640;7.494;2023-03-23T07:41:25;13.40;99.90
39957;DHT22;48483;44.640;7.494;2023-03-23T07:43:54;13.40;99.90
39957;DHT22;48483;44.640;7.494;2023-03-23T07:46:34;13.40;99.90
39957;DHT22;48483;44.640;7.494;2023-03-23T07:49:13;13.50;99.90
39957;DHT22;48483;44.640;7.494;2023-03-23T07:51:45;13.50;99.90
39957;DHT22;48483;44.640;7.494;2023-03-23T07:54:14;13.50;99.90
39957;DHT22;48483;44.640;7.494;2023-03-23T07:56:59;13.60;99.90
39957;DHT22;48483;44.640;7.494;2023-03-23T07:59:29;13.60;99.90
39957;DHT22;48483;44.640;7.494;2023-03-23T08:02:00;13.70;99.90
39957;DHT22;48483;44.640;7.494;2023-03-23T08:04:47;13.80;99.90
39957;DHT22;48483;44.640;7.494;2023-03-23T08:07:15;13.90;99.90
39957;DHT22;48483;44.640;7.494;2023-03-23T08:09:51;14.00;99.90
39957;DHT22;48483;44.640;7.494;2023-03-23T08:12:41;14.10;99.90
39957;DHT22;48483;44.640;7.494;2023-03-23T08:15:34;14.20;99.90
39957;DHT22;48483;44.640;7.494;2023-03-23T08:18:08;14.30;99.90
39957;DHT22;48483;44.640;7.494;2023-03-23T08:21:01;14.40;99.90
39957;DHT22;48483;44.640;7.494;2023-03-23T08:23:34;14.40;99.90
39957;DHT22;48483;44.640;7.494;2023-03-23T08:26:01;14.60;99.90
39957;DHT22;48483;44.640;7.494;2023-03-23T08:28:46;14.60;99.90
39957;DHT22;48483;44.640;7.494;2023-03-23T08:31:32;14.80;99.90
39957;DHT22;48483;44.640;7.494;2023-03-23T08:34:02;14.90;99.90
39957;DHT22;48483;44.640;7.494;2023-03-23T08:36:32;15.00;99.90
39957;DHT22;48483;44.640;7.494;2023-03-23T08:39:18;15.10;99.90
39957;DHT22;48483;44.640;7.494;2023-03-23T08:41:53;15.10;99.90
39957;DHT22;48483;44.640;7.494;2023-03-23T08:44:46;15.30;99.90
39957;DHT22;48483;44.640;7.494;2023-03-23T08:47:36;15.40;99.90
39957;DHT22;48483;44.640;7.494;2023-03-23T08:50:11;15.40;99.90
39957;DHT22;48483;44.640;7.494;2023-03-23T08:52:57;15.40;99.90
39957;DHT22;48483;44.640;7.494;2023-03-23T08:55:43;15.50;99.90
39957;DHT22;48483;44.640;7.494;2023-03-23T08:58:33;15.50;99.90
39957;DHT22;48483;44.640;7.494;2023-03-23T09:01:00;15.60;99.90
39957;DHT22;48483;44.640;7.494;2023-03-23T09:03:42;15.70;99.90
39957;DHT22;48483;44.640;7.494;2023-03-23T09:06:34;15.60;99.90
39957;DHT22;48483;44.640;7.494;2023-03-23T09:09:01;15.60;99.90
39957;DHT22;48483;44.640;7.494;2023-03-23T09:11:33;15.70;99.90
39957;DHT22;48483;44.640;7.494;2023-03-23T09:14:00;15.80;99.90
39957;DHT22;48483;44.640;7.494;2023-03-23T09:16:27;15.90;99.90
39957;DHT22;48483;44.640;7.494;2023-03-23T09:18:54;15.90;99.90
39957;DHT22;48483;44.640;7.494;2023-03-23T09:21:23;16.00;99.90
39957;DHT22;48483;44.640;7.494;2023-03-23T09:23:51;16.10;99.90
39957;DHT22;48483;44.640;7.494;2023-03-23T09:26:18;16.20;99.90
39957;DHT22;48483;44.640;7.494;2023-03-23T09:28:45;16.20;99.90
39957;DHT22;48483;44.640;7.494;2023-03-23T09:31:12;16.30;99.90
39957;DHT22;48483;44.640;7.494;2023-03-23T09:33:39;16.40;99.90
39957;DHT22;48483;44.640;7.494;2023-03-23T09:36:06;16.40;99.90
39957;DHT22;48483;44.640;7.494;2023-03-23T09:38:37;16.40;99.90
39957;DHT22;48483;44.640;7.494;2023-03-23T09:41:13;16.40;99.90
39957;DHT22;48483;44.640;7.494;2023-03-23T09:43:58;16.40;99.90
39957;DHT22;48483;44.640;7.494;2023-03-23T09:46:35;16.50;99.90
39957;DHT22;48483;44.640;7.494;2023-03-23T09:49:10;16.50;99.90
39957;DHT22;48483;44.640;7.494;2023-03-23T09:51:42;16.60;99.90
39957;DHT22;48483;44.640;7.494;2023-03-23T09:54:14;16.60;99.90
39957;DHT22;48483;44.640;7.494;2023-03-23T09:56:45;16.60;99.90
39957;DHT22;48483;44.640;7.494;2023-03-23T09:59:18;16.60;99.90
39957;DHT22;48483;44.640;7.494;2023-03-23T10:01:48;16.70;99.90
39957;DHT22;48483;44.640;7.494;2023-03-23T10:04:24;16.70;99.90
39957;DHT22;48483;44.640;7.494;2023-03-23T10:06:52;16.70;99.90
39957;DHT22;48483;44.640;7.494;2023-03-23T10:09:20;16.70;99.90
39957;DHT22;48483;44.640;7.494;2023-03-23T10:11:56;16.70;99.90
39957;DHT22;48483;44.640;7.494;2023-03-23T10:14:34;16.80;99.90
39957;DHT22;48483;44.640;7.494;2023-03-23T10:17:13;17.00;99.90
39957;DHT22;48483;44.640;7.494;2023-03-23T10:19:46;17.00;99.90
39957;DHT22;48483;44.640;7.494;2023-03-23T10:22:16;17.10;99.90
39957;DHT22;48483;44.640;7.494;2023-03-23T10:24:50;17.00;99.90
39957;DHT22;48483;44.640;7.494;2023-03-23T10:27:26;17.00;99.90
39957;DHT22;48483;44.640;7.494;2023-03-23T10:29:57;17.10;99.90
39957;DHT22;48483;44.640;7.494;2023-03-23T10:32:39;17.10;99.90
39957;DHT22;48483;44.640;7.494;2023-03-23T10:35:12;17.10;99.90
39957;DHT22;48483;44.640;7.494;2023-03-23T10:37:44;17.20;99.90
39957;DHT22;48483;44.640;7.494;2023-03-23T10:40:16;17.20;99.90
39957;DHT22;48483;44.640;7.494;2023-03-23T10:42:46;17.20;99.90
39957;DHT22;48483;44.640;7.494;2023-03-23T10:45:17;17.40;99.90
39957;DHT22;48483;44.640;7.494;2023-03-23T10:47:49;17.50;99.90
39957;DHT22;48483;44.640;7.494;2023-03-23T10:50:23;17.40;99.90
39957;DHT22;48483;44.640;7.494;2023-03-23T10:52:51;17.40;99.90
39957;DHT22;48483;44.640;7.494;2023-03-23T10:55:21;17.50;99.90
39957;DHT22;48483;44.640;7.494;2023-03-23T10:58:01;17.60;99.90
39957;DHT22;48483;44.640;7.494;2023-03-23T11:00:28;17.50;99.90
39957;DHT22;48483;44.640;7.494;2023-03-23T11:03:03;17.50;99.90
39957;DHT22;48483;44.640;7.494;2023-03-23T11:05:36;17.50;99.90
39957;DHT22;48483;44.640;7.494;2023-03-23T11:08:11;17.70;99.90
39957;DHT22;48483;44.640;7.494;2023-03-23T11:10:40;17.70;99.90
39957;DHT22;48483;44.640;7.494;2023-03-23T11:13:13;17.60;99.90
39957;DHT22;48483;44.640;7.494;2023-03-23T11:15:41;17.50;99.90
39957;DHT22;48483;44.640;7.494;2023-03-23T11:18:10;17.50;99.90
39957;DHT22;48483;44.640;7.494;2023-03-23T11:20:39;17.60;99.90
39957;DHT22;48483;44.640;7.494;2023-03-23T11:23:11;17.70;99.90
39957;DHT22;48483;44.640;7.494;2023-03-23T11:25:57;17.70;99.90
39957;DHT22;48483;44.640;7.494;2023-03-23T11:28:29;17.80;99.90
39957;DHT22;48483;44.640;7.494;2023-03-23T11:30:59;17.90;99.90
39957;DHT22;48483;44.640;7.494;2023-03-23T11:33:29;18.00;99.90
39957;DHT22;48483;44.640;7.494;2023-03-23T11:35:57;18.10;99.90
39957;DHT22;48483;44.640;7.494;2023-03-23T11:38:24;18.10;99.90
39957;DHT22;48483;44.640;7.494;2023-03-23T11:40:54;18.10;99.90
39957;DHT22;48483;44.640;7.494;2023-03-23T11:43:23;18.10;99.90
39957;DHT22;48483;44.640;7.494;2023-03-23T11:45:59;18.20;99.90
39957;DHT22;48483;44.640;7.494;2023-03-23T11:48:35;18.20;99.90
39957;DHT22;48483;44.640;7.494;2023-03-23T11:51:08;18.30;99.90
39957;DHT22;48483;44.640;7.494;2023-03-23T11:53:47;18.40;99.90
39957;DHT22;48483;44.640;7.494;2023-03-23T11:56:23;18.40;99.90
39957;DHT22;48483;44.640;7.494;2023-03-23T11:58:53;18.40;99.90
39957;DHT22;48483;44.640;7.494;2023-03-23T12:01:36;18.50;99.90
39957;DHT22;48483;44.640;7.494;2023-03-23T12:07:02;18.50;99.90
39957;DHT22;48483;44.640;7.494;2023-03-23T12:09:41;18.50;99.90
39957;DHT22;48483;44.640;7.494;2023-03-23T12:12:16;18.60;99.90
39957;DHT22;48483;44.640;7.494;2023-03-23T12:14:51;18.50;99.90
39957;DHT22;48483;44.640;7.494;2023-03-23T12:17:28;18.50;99.90
39957;DHT22;48483;44.640;7.494;2023-03-23T12:20:08;18.50;99.90
39957;DHT22;48483;44.640;7.494;2023-03-23T12:22:47;18.60;99.90
39957;DHT22;48483;44.640;7.494;2023-03-23T12:25:33;18.70;99.90
39957;DHT22;48483;44.640;7.494;2023-03-23T12:28:11;18.80;99.90
39957;DHT22;48483;44.640;7.494;2023-03-23T12:30:49;18.80;99.90
39957;DHT22;48483;44.640;7.494;2023-03-23T12:33:25;18.80;99.90
39957;DHT22;48483;44.640;7.494;2023-03-23T12:36:03;18.80;99.90
39957;DHT22;48483;44.640;7.494;2023-03-23T12:38:59;18.80;99.90
39957;DHT22;48483;44.640;7.494;2023-03-23T12:41:36;18.80;99.90
39957;DHT22;48483;44.640;7.494;2023-03-23T12:44:06;18.90;99.90
39957;DHT22;48483;44.640;7.494;2023-03-23T12:47:02;18.90;99.90
39957;DHT22;48483;44.640;7.494;2023-03-23T12:49:35;19.00;99.90
39957;DHT22;48483;44.640;7.494;2023-03-23T12:52:11;19.00;99.90
39957;DHT22;48483;44.640;7.494;2023-03-23T12:54:44;19.00;99.90
39957;DHT22;48483;44.640;7.494;2023-03-23T12:57:20;18.90;99.90
39957;DHT22;48483;44.640;7.494;2023-03-23T12:59:53;18.90;99.90
39957;DHT22;48483;44.640;7.494;2023-03-23T13:02:29;18.90;99.90
39957;DHT22;48483;44.640;7.494;2023-03-23T13:05:03;18.90;99.90
39957;DHT22;48483;44.640;7.494;2023-03-23T13:07:34;18.90;99.90
39957;DHT22;48483;44.640;7.494;2023-03-23T13:10:05;19.00;99.90
39957;DHT22;48483;44.640;7.494;2023-03-23T13:12:33;19.00;99.90
39957;DHT22;48483;44.640;7.494;2023-03-23T13:15:08;19.00;99.90
39957;DHT22;48483;44.640;7.494;2023-03-23T13:17:45;19.10;99.90
39957;DHT22;48483;44.640;7.494;2023-03-23T13:23:09;19.10;99.90
39957;DHT22;48483;44.640;7.494;2023-03-23T13:25:52;19.10;99.90
39957;DHT22;48483;44.640;7.494;2023-03-23T13:28:22;19.00;99.90
39957;DHT22;48483;44.640;7.494;2023-03-23T13:30:56;19.00;99.90
39957;DHT22;48483;44.640;7.494;2023-03-23T13:33:24;19.00;99.90
39957;DHT22;48483;44.640;7.494;2023-03-23T13:35:52;19.00;99.90
39957;DHT22;48483;44.640;7.494;2023-03-23T13:38:21;19.00;99.90
39957;DHT22;48483;44.640;7.494;2023-03-23T13:40:51;19.10;99.90
39957;DHT22;48483;44.640;7.494;2023-03-23T13:43:30;19.20;99.90
39957;DHT22;48483;44.640;7.494;2023-03-23T13:46:08;19.20;99.90
39957;DHT22;48483;44.640;7.494;2023-03-23T13:48:44;19.20;99.90
39957;DHT22;48483;44.640;7.494;2023-03-23T13:51:32;19.20;99.90
39957;DHT22;48483;44.640;7.494;2023-03-23T13:54:29;19.30;99.90
39957;DHT22;48483;44.640;7.494;2023-03-23T13:56:58;19.30;99.90
39957;DHT22;48483;44.640;7.494;2023-03-23T13:59:33;19.20;99.90
39957;DHT22;48483;44.640;7.494;2023-03-23T14:02:33;19.20;99.90
39957;DHT22;48483;44.640;7.494;2023-03-23T14:05:26;19.10;99.90
39957;DHT22;48483;44.640;7.494;2023-03-23T14:07:57;19.10;99.90
39957;DHT22;48483;44.640;7.494;2023-03-23T14:10:35;19.10;99.90
39957;DHT22;48483;44.640;7.494;2023-03-23T14:13:04;19.20;99.90
39957;DHT22;48483;44.640;7.494;2023-03-23T14:15:40;19.20;99.90
39957;DHT22;48483;44.640;7.494;2023-03-23T14:18:14;19.30;99.90
39957;DHT22;48483;44.640;7.494;2023-03-23T14:20:43;19.30;99.90
39957;DHT22;48483;44.640;7.494;2023-03-23T14:23:18;19.30;99.90
39957;DHT22;48483;44.640;7.494;2023-03-23T14:25:45;19.20;99.90
39957;DHT22;48483;44.640;7.494;2023-03-23T14:28:21;19.30;99.90
39957;DHT22;48483;44.640;7.494;2023-03-23T14:30:52;19.30;99.90
39957;DHT22;48483;44.640;7.494;2023-03-23T14:33:20;19.30;99.90
39957;DHT22;48483;44.640;7.494;2023-03-23T14:35:47;19.30;99.90
39957;DHT22;48483;44.640;7.494;2023-03-23T14:38:20;19.40;99.90
39957;DHT22;48483;44.640;7.494;2023-03-23T14:40:49;19.30;99.90
39957;DHT22;48483;44.640;7.494;2023-03-23T14:43:18;19.30;99.90
39957;DHT22;48483;44.640;7.494;2023-03-23T14:45:52;19.30;99.90
39957;DHT22;48483;44.640;7.494;2023-03-23T14:48:20;19.20;99.90
39957;DHT22;48483;44.640;7.494;2023-03-23T14:50:52;19.20;99.90
39957;DHT22;48483;44.640;7.494;2023-03-23T14:53:22;19.20;99.90
39957;DHT22;48483;44.640;7.494;2023-03-23T14:55:51;19.20;99.90
39957;DHT22;48483;44.640;7.494;2023-03-23T14:58:20;19.20;99.90
39957;DHT22;48483;44.640;7.494;2023-03-23T15:00:51;19.10;99.90
39957;DHT22;48483;44.640;7.494;2023-03-23T15:03:19;19.10;99.90
39957;DHT22;48483;44.640;7.494;2023-03-23T15:05:48;19.20;99.90
39957;DHT22;48483;44.640;7.494;2023-03-23T15:08:20;19.20;99.90
39957;DHT22;48483;44.640;7.494;2023-03-23T15:10:54;19.20;99.90
39957;DHT22;48483;44.640;7.494;2023-03-23T15:13:21;19.10;99.90
39957;DHT22;48483;44.640;7.494;2023-03-23T15:15:48;19.20;99.90
39957;DHT22;48483;44.640;7.494;2023-03-23T15:18:33;19.20;99.90
39957;DHT22;48483;44.640;7.494;2023-03-23T15:21:09;19.20;99.90
39957;DHT22;48483;44.640;7.494;2023-03-23T15:23:42;19.20;99.90
39957;DHT22;48483;44.640;7.494;2023-03-23T15:26:32;19.20;99.90
39957;DHT22;48483;44.640;7.494;2023-03-23T15:29:03;19.20;99.90
39957;DHT22;48483;44.640;7.494;2023-03-23T15:31:30;19.20;99.90
39957;DHT22;48483;44.640;7.494;2023-03-23T15:33:59;19.20;99.90
39957;DHT22;48483;44.640;7.494;2023-03-23T15:36:30;19.10;99.90
39957;DHT22;48483;44.640;7.494;2023-03-23T15:38:59;19.10;99.90
39957;DHT22;48483;44.640;7.494;2023-03-23T15:41:27;19.10;99.90
39957;DHT22;48483;44.640;7.494;2023-03-23T15:43:57;19.00;99.90
39957;DHT22;48483;44.640;7.494;2023-03-23T15:46:28;18.90;99.90
39957;DHT22;48483;44.640;7.494;2023-03-23T15:49:08;18.90;99.90
39957;DHT22;48483;44.640;7.494;2023-03-23T15:51:36;18.90;99.90
39957;DHT22;48483;44.640;7.494;2023-03-23T15:54:09;18.80;99.90
39957;DHT22;48483;44.640;7.494;2023-03-23T15:56:38;18.80;99.90
39957;DHT22;48483;44.640;7.494;2023-03-23T15:59:05;18.80;99.90
39957;DHT22;48483;44.640;7.494;2023-03-23T16:01:31;18.70;99.90
39957;DHT22;48483;44.640;7.494;2023-03-23T16:04:00;18.70;99.90
39957;DHT22;48483;44.640;7.494;2023-03-23T16:06:30;18.60;99.90
39957;DHT22;48483;44.640;7.494;2023-03-23T16:08:57;18.60;99.90
39957;DHT22;48483;44.640;7.494;2023-03-23T16:11:28;18.60;99.90
39957;DHT22;48483;44.640;7.494;2023-03-23T16:13:55;18.60;99.90
39957;DHT22;48483;44.640;7.494;2023-03-23T16:16:23;18.50;99.90
39957;DHT22;48483;44.640;7.494;2023-03-23T16:18:51;18.40;99.90